createdAt,value
2019-05-23T00:00:03.661Z,77.10
2019-05-23T00:01:03.674Z,76.49
2019-05-23T00:02:04.584Z,76.69
2019-05-23T00:03:03.627Z,76.49
2019-05-23T00:04:03.605Z,76.59
2019-05-23T00:05:03.590Z,76.49
2019-05-23T00:06:03.598Z,76.39
2019-05-23T00:07:03.603Z,76.49
2019-05-23T00:08:03.568Z,76.08
2019-05-23T00:09:03.554Z,76.69
2019-05-23T00:10:03.540Z,75.78
2019-05-23T00:11:03.538Z,75.88
2019-05-23T00:12:03.519Z,76.69
2019-05-23T00:13:03.499Z,76.18
2019-05-23T00:14:03.491Z,75.78
2019-05-23T00:15:03.489Z,76.69
2019-05-23T00:16:03.462Z,76.90
2019-05-23T00:17:03.475Z,76.90
2019-05-23T00:18:03.444Z,76.59
2019-05-23T00:19:03.457Z,75.47
2019-05-23T00:20:03.425Z,75.47
2019-05-23T00:21:03.416Z,75.37
2019-05-23T00:22:03.423Z,75.88
2019-05-23T00:23:03.403Z,75.67
2019-05-23T00:24:03.370Z,75.47
2019-05-23T00:25:03.380Z,75.47
2019-05-23T00:26:03.354Z,75.98
2019-05-23T00:27:03.351Z,75.67
2019-05-23T00:28:03.330Z,75.88
2019-05-23T00:29:10.128Z,75.47
2019-05-23T00:30:04.308Z,76.08
2019-05-23T00:31:03.299Z,75.78
2019-05-23T00:32:03.308Z,75.92
2019-05-23T00:33:03.276Z,76.01
2019-05-23T00:34:08.059Z,76.01
2019-05-23T00:35:03.251Z,75.81
2019-05-23T00:36:03.242Z,75.92
2019-05-23T00:37:03.233Z,76.22
2019-05-23T00:38:03.213Z,76.62
2019-05-23T00:39:03.204Z,75.92
2019-05-23T00:40:03.195Z,75.92
2019-05-23T00:41:03.186Z,76.62
2019-05-23T00:42:03.181Z,76.62
2019-05-23T00:43:03.168Z,76.01
2019-05-23T00:44:03.154Z,76.32
2019-05-23T00:45:03.141Z,76.53
2019-05-23T00:46:03.155Z,76.12
2019-05-23T00:47:03.153Z,76.32
2019-05-23T00:48:03.098Z,77.14
2019-05-23T00:49:03.089Z,75.81
2019-05-23T00:50:03.083Z,75.81
2019-05-23T00:51:05.350Z,76.12
2019-05-23T00:52:03.087Z,76.01
2019-05-23T00:53:03.042Z,76.22
2019-05-23T00:54:03.047Z,76.22
2019-05-23T00:55:03.026Z,76.42
2019-05-23T00:56:03.019Z,76.01
2019-05-23T00:57:03.004Z,75.81
2019-05-23T00:58:03.005Z,76.12
2019-05-23T00:59:02.978Z,76.53
2019-05-23T01:00:02.963Z,76.22
2019-05-23T01:01:02.962Z,76.12
2019-05-23T01:02:02.972Z,76.15
2019-05-23T01:03:02.960Z,76.62
2019-05-23T01:04:02.936Z,76.53
2019-05-23T01:05:02.942Z,76.56
2019-05-23T01:06:02.893Z,76.83
2019-05-23T01:07:02.893Z,76.25
2019-05-23T01:08:02.893Z,76.15
2019-05-23T01:09:02.868Z,76.25
2019-05-23T01:10:02.850Z,76.56
2019-05-23T01:11:02.840Z,76.87
2019-05-23T01:12:02.831Z,76.76
2019-05-23T01:13:02.846Z,77.68
2019-05-23T01:14:02.809Z,76.66
2019-05-23T01:15:02.792Z,76.66
2019-05-23T01:16:02.788Z,76.46
2019-05-23T01:17:02.776Z,76.87
2019-05-23T01:18:02.780Z,76.66
2019-05-23T01:19:02.753Z,76.66
2019-05-23T01:20:02.767Z,77.17
2019-05-23T01:21:02.743Z,77.17
2019-05-23T01:22:02.749Z,77.37
2019-05-23T01:23:02.716Z,77.17
2019-05-23T01:24:02.707Z,76.87
2019-05-23T01:25:02.683Z,76.46
2019-05-23T01:26:02.672Z,76.62
2019-05-23T01:27:02.656Z,76.76
2019-05-23T01:28:02.727Z,76.76
2019-05-23T01:29:02.646Z,77.48
2019-05-23T01:30:02.634Z,77.48
2019-05-23T01:31:02.612Z,76.87
2019-05-23T01:34:59.869Z,76.66
2019-05-23T01:35:19.222Z,76.66
2019-05-23T01:36:19.180Z,77.17
2019-05-23T01:37:19.177Z,77.58
2019-05-23T01:38:19.203Z,76.97
2019-05-23T01:39:19.216Z,76.97
2019-05-23T01:40:19.139Z,76.87
2019-05-23T01:41:19.131Z,77.78
2019-05-23T01:42:19.127Z,76.46
2019-05-23T01:43:19.126Z,77.27
2019-05-23T01:44:19.106Z,77.27
2019-05-23T01:45:19.096Z,77.27
2019-05-23T01:46:19.113Z,77.17
2019-05-23T01:47:19.079Z,76.76
2019-05-23T01:48:19.057Z,75.95
2019-05-23T01:49:19.089Z,76.56
2019-05-23T01:50:19.030Z,76.56
2019-05-23T01:51:19.046Z,76.97
2019-05-23T01:52:19.046Z,77.27
2019-05-23T01:53:18.995Z,77.27
2019-05-23T01:54:18.995Z,76.56
2019-05-23T01:55:18.978Z,76.39
2019-05-23T01:56:18.964Z,77.41
2019-05-23T01:57:18.954Z,77.21
2019-05-23T01:58:18.966Z,77.51
2019-05-23T01:59:18.952Z,77.51
2019-05-23T02:00:18.920Z,77.21
2019-05-23T02:01:18.910Z,77.11
2019-05-23T02:02:18.937Z,77.72
2019-05-23T02:03:18.883Z,77.68
2019-05-23T02:04:18.914Z,77.62
2019-05-23T02:05:18.867Z,77.82
2019-05-23T02:06:18.848Z,77.27
2019-05-23T02:07:18.846Z,77.92
2019-05-23T02:08:18.888Z,77.21
2019-05-23T02:09:18.884Z,77.51
2019-05-23T02:10:18.843Z,77.21
2019-05-23T02:11:18.795Z,77.21
2019-05-23T02:12:18.777Z,77.21
2019-05-23T02:13:18.770Z,77.92
2019-05-23T02:14:18.826Z,77.92
2019-05-23T02:15:18.747Z,78.12
2019-05-23T02:16:18.731Z,77.86
2019-05-23T02:17:18.727Z,77.86
2019-05-23T02:18:18.717Z,78.27
2019-05-23T02:19:18.706Z,77.51
2019-05-23T02:20:18.708Z,78.37
2019-05-23T02:21:18.707Z,78.37
2019-05-23T02:22:18.668Z,78.06
2019-05-23T02:23:18.675Z,78.77
2019-05-23T02:24:18.680Z,77.86
2019-05-23T02:25:18.660Z,78.06
2019-05-23T02:26:18.641Z,77.55
2019-05-23T02:27:18.614Z,78.27
2019-05-23T02:28:18.605Z,78.27
2019-05-23T02:29:18.600Z,78.16
2019-05-23T02:30:33.023Z,78.27
2019-05-23T02:31:19.564Z,78.30
2019-05-23T02:32:18.558Z,78.61
2019-05-23T02:33:18.555Z,78.71
2019-05-23T02:34:18.551Z,78.50
2019-05-23T02:35:18.539Z,78.91
2019-05-23T02:36:18.507Z,79.02
2019-05-23T02:37:18.500Z,79.12
2019-05-23T02:38:18.543Z,79.46
2019-05-23T02:39:18.530Z,79.46
2019-05-23T02:40:18.533Z,79.73
2019-05-23T02:41:18.462Z,79.22
2019-05-23T02:42:18.481Z,78.81
2019-05-23T02:43:18.425Z,78.95
2019-05-23T02:44:18.428Z,79.63
2019-05-23T02:45:18.418Z,79.05
2019-05-23T02:46:18.402Z,79.36
2019-05-23T02:47:18.389Z,79.02
2019-05-23T02:48:18.379Z,78.95
2019-05-23T02:49:18.390Z,79.25
2019-05-23T02:50:18.358Z,79.25
2019-05-23T02:51:18.344Z,79.66
2019-05-23T02:52:18.336Z,79.36
2019-05-23T02:53:18.317Z,79.57
2019-05-23T02:54:18.315Z,79.66
2019-05-23T02:55:18.304Z,79.66
2019-05-23T02:56:18.293Z,79.46
2019-05-23T02:57:18.286Z,79.46
2019-05-23T02:58:18.269Z,80.69
2019-05-23T02:59:18.250Z,79.57
2019-05-23T03:00:18.245Z,79.57
2019-05-23T03:01:18.234Z,79.66
2019-05-23T03:02:18.226Z,79.46
2019-05-23T03:03:18.209Z,79.57
2019-05-23T03:04:18.204Z,79.66
2019-05-23T03:05:18.205Z,79.25
2019-05-23T03:06:18.191Z,78.91
2019-05-23T03:07:18.267Z,79.25
2019-05-23T03:08:18.167Z,79.66
2019-05-23T03:09:18.179Z,79.36
2019-05-23T03:10:18.167Z,79.25
2019-05-23T03:11:18.143Z,79.66
2019-05-23T03:12:18.120Z,79.46
2019-05-23T03:13:18.131Z,79.77
2019-05-23T03:14:18.095Z,79.50
2019-05-23T03:15:18.091Z,79.91
2019-05-23T03:16:18.062Z,79.70
2019-05-23T03:17:18.057Z,79.91
2019-05-23T03:18:18.057Z,80.32
2019-05-23T03:19:18.084Z,80.52
2019-05-23T03:20:18.052Z,80.28
2019-05-23T03:21:18.011Z,79.77
2019-05-23T03:22:20.866Z,79.46
2019-05-23T03:23:17.999Z,79.19
2019-05-23T03:24:18.013Z,79.80
2019-05-23T03:25:17.971Z,80.52
2019-05-23T03:26:17.958Z,79.29
2019-05-23T03:27:17.944Z,79.39
2019-05-23T03:28:17.953Z,80.62
2019-05-23T03:29:17.928Z,79.91
2019-05-23T03:30:17.927Z,80.32
2019-05-23T03:31:30.977Z,80.32
2019-05-23T03:32:18.892Z,80.62
2019-05-23T03:33:17.882Z,80.42
2019-05-23T03:34:17.866Z,80.21
2019-05-23T03:35:17.858Z,79.60
2019-05-23T03:36:17.855Z,80.21
2019-05-23T03:37:17.848Z,80.21
2019-05-23T03:38:17.824Z,80.42
2019-05-23T03:39:17.839Z,80.21
2019-05-23T03:40:17.859Z,80.01
2019-05-23T03:41:17.812Z,79.91
2019-05-23T03:42:17.778Z,80.01
2019-05-23T03:43:17.763Z,80.32
2019-05-23T03:44:17.750Z,80.46
2019-05-23T03:45:17.749Z,80.05
2019-05-23T03:46:17.736Z,80.05
2019-05-23T03:47:17.722Z,80.15
2019-05-23T03:48:17.725Z,80.76
2019-05-23T03:49:17.704Z,81.38
2019-05-23T03:50:17.683Z,81.79
2019-05-23T03:51:17.693Z,81.88
2019-05-23T03:52:17.668Z,80.97
2019-05-23T03:53:17.656Z,80.97
2019-05-23T03:54:17.645Z,81.99
2019-05-23T03:55:17.635Z,81.17
2019-05-23T03:56:17.634Z,80.76
2019-05-23T03:57:17.606Z,80.97
2019-05-23T03:58:17.604Z,80.97
2019-05-23T03:59:17.620Z,81.07
2019-05-23T04:00:17.588Z,81.10
2019-05-23T04:01:17.580Z,81.72
2019-05-23T04:02:17.578Z,81.58
2019-05-23T04:03:17.582Z,81.79
2019-05-23T04:04:17.569Z,81.79
2019-05-23T04:05:17.527Z,81.17
2019-05-23T04:06:17.522Z,80.97
2019-05-23T04:07:17.508Z,80.87
2019-05-23T04:08:17.500Z,81.48
2019-05-23T04:09:17.481Z,80.60
2019-05-23T04:10:17.465Z,81.21
2019-05-23T04:11:17.464Z,81.72
2019-05-23T04:12:17.440Z,81.31
2019-05-23T04:13:17.449Z,81.41
2019-05-23T04:14:17.423Z,81.41
2019-05-23T04:15:17.415Z,81.41
2019-05-23T04:16:17.415Z,81.72
2019-05-23T04:17:17.386Z,81.24
2019-05-23T04:18:17.412Z,82.34
2019-05-23T04:19:17.392Z,81.93
2019-05-23T04:20:17.387Z,81.62
2019-05-23T04:21:17.341Z,81.62
2019-05-23T04:22:17.346Z,81.35
2019-05-23T04:23:17.319Z,81.65
2019-05-23T04:24:17.318Z,81.51
2019-05-23T04:25:17.315Z,81.96
2019-05-23T04:26:17.288Z,81.72
2019-05-23T04:27:17.291Z,81.41
2019-05-23T04:28:17.270Z,81.72
2019-05-23T04:29:17.256Z,81.51
2019-05-23T04:30:17.241Z,81.62
2019-05-23T04:31:17.238Z,81.62
2019-05-23T04:32:17.241Z,81.62
2019-05-23T04:33:17.207Z,82.03
2019-05-23T04:34:17.203Z,81.56
2019-05-23T04:35:17.186Z,81.72
2019-05-23T04:36:17.171Z,82.43
2019-05-23T04:37:17.283Z,82.07
2019-05-23T04:38:17.173Z,81.56
2019-05-23T04:39:17.161Z,81.93
2019-05-23T04:40:17.133Z,82.34
2019-05-23T04:41:17.120Z,82.57
2019-05-23T04:42:17.119Z,82.27
2019-05-23T04:43:17.095Z,82.64
2019-05-23T04:44:17.093Z,82.03
2019-05-23T04:45:17.074Z,81.93
2019-05-23T04:46:17.071Z,82.03
2019-05-23T04:47:17.069Z,82.07
2019-05-23T04:48:17.049Z,82.07
2019-05-23T04:49:17.033Z,82.57
2019-05-23T04:50:17.028Z,82.34
2019-05-23T04:51:17.007Z,82.57
2019-05-23T04:52:17.009Z,82.23
2019-05-23T04:53:16.981Z,82.57
2019-05-23T04:54:16.977Z,82.57
2019-05-23T04:55:16.959Z,82.17
2019-05-23T04:56:16.975Z,82.48
2019-05-23T04:57:16.977Z,82.27
2019-05-23T04:58:16.930Z,81.76
2019-05-23T04:59:16.915Z,82.27
2019-05-23T05:00:16.914Z,82.27
2019-05-23T05:01:16.909Z,82.17
2019-05-23T05:02:26.163Z,83.44
2019-05-23T05:03:18.866Z,83.54
2019-05-23T05:04:16.856Z,83.29
2019-05-23T05:05:16.850Z,83.19
2019-05-23T05:06:16.846Z,83.60
2019-05-23T05:07:16.834Z,83.50
2019-05-23T05:08:16.883Z,83.29
2019-05-23T05:09:16.809Z,83.50
2019-05-23T05:10:16.788Z,83.39
2019-05-23T05:11:16.789Z,83.39
2019-05-23T05:12:16.782Z,82.57
2019-05-23T05:13:16.763Z,82.78
2019-05-23T05:14:16.747Z,82.48
2019-05-23T05:15:16.734Z,83.60
2019-05-23T05:16:16.783Z,82.17
2019-05-23T05:17:16.736Z,81.86
2019-05-23T05:18:16.713Z,81.82
2019-05-23T05:19:16.699Z,82.07
2019-05-23T05:20:16.681Z,82.13
2019-05-23T05:21:16.664Z,81.45
2019-05-23T05:22:16.653Z,81.72
2019-05-23T05:23:16.660Z,81.62
2019-05-23T05:24:16.650Z,81.21
2019-05-23T05:25:16.632Z,81.31
2019-05-23T05:26:16.622Z,81.51
2019-05-23T05:27:16.615Z,81.31
2019-05-23T05:28:16.596Z,81.72
2019-05-23T05:29:16.581Z,81.21
2019-05-23T05:30:16.566Z,81.38
2019-05-23T05:31:16.553Z,81.41
2019-05-23T05:32:16.542Z,81.68
2019-05-23T05:33:16.551Z,80.87
2019-05-23T05:34:16.524Z,80.76
2019-05-23T05:35:16.548Z,80.15
2019-05-23T05:36:16.518Z,80.25
2019-05-23T05:37:16.504Z,79.60
2019-05-23T05:38:16.509Z,79.33
2019-05-23T05:39:16.468Z,80.05
2019-05-23T05:40:16.457Z,80.56
2019-05-23T05:41:16.459Z,80.35
2019-05-23T05:42:16.437Z,79.70
2019-05-23T05:43:16.435Z,80.21
2019-05-23T05:44:16.416Z,80.42
2019-05-23T05:45:16.406Z,80.52
2019-05-23T05:46:16.390Z,79.46
2019-05-23T05:47:16.381Z,79.46
2019-05-23T05:48:16.386Z,79.66
2019-05-23T05:49:16.398Z,78.75
2019-05-23T05:50:16.342Z,79.05
2019-05-23T05:51:16.334Z,78.85
2019-05-23T05:52:16.322Z,77.38
2019-05-23T05:53:16.335Z,77.72
2019-05-23T05:54:16.297Z,77.38
2019-05-23T05:55:16.287Z,77.69
2019-05-23T05:56:16.285Z,77.38
2019-05-23T05:57:16.275Z,76.77
2019-05-23T05:58:16.338Z,76.87
2019-05-23T05:59:16.247Z,76.67
2019-05-23T06:00:16.239Z,77.69
2019-05-23T06:01:31.196Z,77.34
2019-05-23T06:02:17.226Z,76.53
2019-05-23T06:03:16.221Z,76.43
2019-05-23T06:04:16.192Z,75.71
2019-05-23T06:05:16.176Z,75.44
2019-05-23T06:06:16.165Z,75.51
2019-05-23T06:07:16.215Z,76.02
2019-05-23T06:08:16.145Z,76.56
2019-05-23T06:09:16.146Z,77.14
2019-05-23T06:10:16.140Z,76.73
2019-05-23T06:11:16.129Z,76.12
2019-05-23T06:12:16.114Z,76.12
2019-05-23T06:13:16.104Z,75.98
2019-05-23T06:14:16.093Z,75.82
2019-05-23T06:15:16.065Z,76.19
2019-05-23T06:16:16.056Z,75.88
2019-05-23T06:17:16.057Z,75.07
2019-05-23T06:18:16.034Z,74.96
2019-05-23T06:19:16.032Z,75.16
2019-05-23T06:20:16.008Z,75.23
2019-05-23T06:21:15.998Z,74.86
2019-05-23T06:22:15.992Z,74.35
2019-05-23T06:23:15.976Z,74.52
2019-05-23T06:24:15.988Z,75.13
2019-05-23T06:25:15.967Z,74.11
2019-05-23T06:26:15.947Z,73.71
2019-05-23T06:27:15.950Z,73.19
2019-05-23T06:28:15.928Z,73.40
2019-05-23T06:29:15.979Z,73.19
2019-05-23T06:30:15.897Z,73.36
2019-05-23T06:31:15.894Z,73.91
2019-05-23T06:32:15.875Z,73.10
2019-05-23T06:33:23.255Z,73.30
2019-05-23T06:34:16.865Z,73.40
2019-05-23T06:35:15.852Z,73.40
2019-05-23T06:36:15.841Z,73.40
2019-05-23T06:37:15.822Z,73.81
2019-05-23T06:38:15.814Z,73.71
2019-05-23T06:39:16.053Z,73.81
2019-05-23T06:40:15.785Z,73.10
2019-05-23T06:41:15.802Z,72.89
2019-05-23T06:42:15.767Z,73.30
2019-05-23T06:43:15.756Z,73.10
2019-05-23T06:44:15.756Z,72.69
2019-05-23T06:45:15.734Z,73.30
2019-05-23T06:46:15.724Z,73.40
2019-05-23T06:47:15.711Z,73.50
2019-05-23T06:48:15.828Z,73.81
2019-05-23T06:49:15.703Z,73.26
2019-05-23T06:50:15.676Z,72.75
2019-05-23T06:51:15.735Z,72.65
2019-05-23T06:52:15.649Z,72.75
2019-05-23T06:53:15.658Z,72.65
2019-05-23T06:54:15.641Z,72.86
2019-05-23T06:55:15.619Z,73.23
2019-05-23T06:56:15.619Z,72.45
2019-05-23T06:57:15.595Z,72.92
2019-05-23T06:58:15.586Z,71.91
2019-05-23T06:59:15.614Z,72.52
2019-05-23T07:00:15.556Z,72.11
2019-05-23T07:01:15.545Z,72.21
2019-05-23T07:02:15.543Z,71.70
2019-05-23T07:03:15.529Z,72.11
2019-05-23T07:04:15.539Z,71.50
2019-05-23T07:05:15.509Z,71.80
2019-05-23T07:06:15.494Z,70.89
2019-05-23T07:07:15.491Z,72.01
2019-05-23T07:08:15.472Z,71.91
2019-05-23T07:09:15.487Z,71.09
2019-05-23T07:10:15.445Z,72.11
2019-05-23T07:11:15.432Z,71.60
2019-05-23T07:12:15.424Z,71.94
2019-05-23T07:13:15.411Z,70.92
2019-05-23T07:14:15.405Z,70.72
2019-05-23T07:15:15.401Z,69.80
2019-05-23T07:16:15.378Z,70.31
2019-05-23T07:17:15.363Z,70.51
2019-05-23T07:18:15.360Z,69.49
2019-05-23T07:19:15.351Z,70.21
2019-05-23T07:20:15.352Z,69.49
2019-05-23T07:21:15.359Z,68.88
2019-05-23T07:22:18.610Z,68.85
2019-05-23T07:23:15.300Z,68.79
2019-05-23T07:24:15.289Z,68.44
2019-05-23T07:25:15.287Z,68.65
2019-05-23T07:26:15.270Z,68.85
2019-05-23T07:27:15.250Z,68.65
2019-05-23T07:28:15.371Z,68.38
2019-05-23T07:29:15.247Z,68.04
2019-05-23T07:30:15.224Z,67.94
2019-05-23T07:31:15.215Z,66.52
2019-05-23T07:32:15.205Z,67.02
2019-05-23T07:33:15.195Z,66.41
2019-05-23T07:34:15.172Z,66.00
2019-05-23T07:35:15.174Z,65.91
2019-05-23T07:36:15.160Z,65.70
2019-05-23T07:37:15.140Z,65.80
2019-05-23T07:38:15.134Z,65.39
2019-05-23T07:39:15.121Z,65.19
2019-05-23T07:40:15.139Z,64.38
2019-05-23T07:41:15.101Z,64.38
2019-05-23T07:42:15.089Z,66.11
2019-05-23T07:43:15.091Z,65.39
2019-05-23T07:44:15.083Z,66.11
2019-05-23T07:45:15.061Z,65.50
2019-05-23T07:46:15.040Z,66.31
2019-05-23T07:47:15.041Z,65.77
2019-05-23T07:48:15.026Z,65.47
2019-05-23T07:49:15.028Z,65.36
2019-05-23T07:50:15.015Z,65.16
2019-05-23T07:51:14.998Z,65.67
2019-05-23T07:52:14.980Z,65.06
2019-05-23T07:53:14.983Z,65.23
2019-05-23T07:54:14.959Z,65.84
2019-05-23T07:55:14.958Z,66.25
2019-05-23T07:56:14.935Z,64.62
2019-05-23T07:57:14.932Z,65.54
2019-05-23T07:58:14.916Z,65.33
2019-05-23T07:59:14.897Z,64.93
2019-05-23T08:00:14.886Z,63.68
2019-05-23T08:01:14.959Z,63.91
2019-05-23T08:02:14.861Z,63.48
2019-05-23T08:03:14.877Z,62.56
2019-05-23T08:04:22.063Z,62.97
2019-05-23T08:05:15.832Z,62.87
2019-05-23T08:06:14.875Z,62.56
2019-05-23T08:07:14.811Z,62.56
2019-05-23T08:08:14.818Z,62.97
2019-05-23T08:09:14.788Z,62.76
2019-05-23T08:10:30.939Z,61.44
2019-05-23T08:11:15.772Z,62.05
2019-05-23T08:12:14.755Z,62.87
2019-05-23T08:13:14.744Z,62.26
2019-05-23T08:14:14.730Z,62.56
2019-05-23T08:15:14.726Z,62.02
2019-05-23T08:16:14.734Z,62.13
2019-05-23T08:17:14.691Z,61.82
2019-05-23T08:18:14.677Z,61.59
2019-05-23T08:19:19.219Z,61.39
2019-05-23T08:20:15.659Z,60.37
2019-05-23T08:21:14.654Z,60.27
2019-05-23T08:22:14.639Z,59.16
2019-05-23T08:23:14.620Z,59.56
2019-05-23T08:24:14.610Z,59.56
2019-05-23T08:25:14.611Z,58.98
2019-05-23T08:26:14.599Z,58.75
2019-05-23T08:27:14.584Z,59.48
2019-05-23T08:28:14.582Z,58.58
2019-05-23T08:29:27.043Z,59.28
2019-05-23T08:30:15.555Z,59.05
2019-05-23T08:31:14.591Z,59.16
2019-05-23T08:32:14.521Z,58.14
2019-05-23T08:33:14.575Z,58.62
2019-05-23T08:34:14.500Z,58.24
2019-05-23T08:35:17.853Z,58.31
2019-05-23T08:36:14.485Z,57.71
2019-05-23T08:37:14.464Z,57.93
2019-05-23T08:38:14.452Z,58.54
2019-05-23T08:39:14.444Z,58.95
2019-05-23T08:40:14.453Z,59.86
2019-05-23T08:41:14.424Z,59.84
2019-05-23T08:42:14.409Z,58.92
2019-05-23T08:43:14.577Z,59.12
2019-05-23T08:44:14.379Z,59.33
2019-05-23T08:45:14.372Z,59.53
2019-05-23T08:46:14.431Z,58.62
2019-05-23T08:47:14.350Z,58.39
2019-05-23T08:48:14.333Z,58.80
2019-05-23T08:49:14.333Z,58.29
2019-05-23T08:50:14.323Z,58.90
2019-05-23T08:51:14.328Z,58.90
2019-05-23T08:52:14.304Z,58.49
2019-05-23T08:53:14.278Z,58.29
2019-05-23T08:54:14.296Z,57.88
2019-05-23T08:55:14.259Z,58.31
2019-05-23T08:56:19.127Z,58.39
2019-05-23T08:57:15.244Z,58.18
2019-05-23T08:58:14.226Z,58.29
2019-05-23T08:59:14.210Z,57.96
2019-05-23T09:00:14.213Z,58.06
2019-05-23T09:01:14.198Z,58.26
2019-05-23T09:02:14.186Z,58.26
2019-05-23T09:03:14.184Z,58.56
2019-05-23T09:04:14.159Z,58.36
2019-05-23T09:05:14.154Z,57.62
2019-05-23T09:06:14.139Z,56.82
2019-05-23T09:07:14.337Z,55.80
2019-05-23T09:08:17.048Z,55.07
2019-05-23T09:09:28.567Z,55.37
2019-05-23T09:10:15.095Z,54.76
2019-05-23T09:11:14.078Z,53.65
2019-05-23T09:12:14.085Z,54.76
2019-05-23T09:13:14.054Z,54.76
2019-05-23T09:14:14.041Z,55.17
2019-05-23T09:15:14.031Z,54.66
2019-05-23T09:16:14.031Z,54.64
2019-05-23T09:17:14.198Z,54.74
2019-05-23T09:18:14.005Z,55.55
2019-05-23T09:19:13.988Z,53.32
2019-05-23T09:20:13.981Z,53.12
2019-05-23T09:21:14.005Z,53.22
2019-05-23T09:22:13.974Z,53.22
2019-05-23T09:23:13.942Z,53.12
2019-05-23T09:24:13.940Z,53.25
2019-05-23T09:25:13.921Z,53.42
2019-05-23T09:26:13.913Z,52.92
2019-05-23T09:27:13.904Z,53.32
2019-05-23T09:28:13.884Z,53.22
2019-05-23T09:29:13.881Z,52.48
2019-05-23T09:30:13.876Z,51.98
2019-05-23T09:31:13.851Z,50.57
2019-05-23T09:32:13.852Z,50.89
2019-05-23T09:33:13.840Z,48.34
2019-05-23T09:34:13.830Z,48.34
2019-05-23T09:35:20.796Z,48.44
2019-05-23T09:36:14.819Z,49.35
2019-05-23T09:37:13.797Z,49.35
2019-05-23T09:38:13.777Z,49.63
2019-05-23T09:39:13.790Z,49.13
2019-05-23T09:40:13.754Z,49.43
2019-05-23T09:41:13.765Z,49.02
2019-05-23T09:42:13.736Z,50.32
2019-05-23T09:43:13.748Z,50.01
2019-05-23T09:44:13.715Z,48.60
2019-05-23T09:45:13.727Z,49.61
2019-05-23T09:46:13.685Z,48.32
2019-05-23T09:47:13.678Z,49.22
2019-05-23T09:48:13.659Z,47.51
2019-05-23T09:49:13.653Z,49.02
2019-05-23T09:50:13.646Z,48.02
2019-05-23T09:51:13.625Z,47.71
2019-05-23T09:52:13.644Z,47.91
2019-05-23T09:53:13.605Z,47.31
2019-05-23T09:54:13.595Z,45.39
2019-05-23T09:55:13.590Z,45.39
2019-05-23T09:56:13.591Z,46.30
2019-05-23T09:57:13.568Z,47.20
2019-05-23T09:58:13.553Z,46.60
2019-05-23T09:59:13.537Z,47.79
2019-05-23T10:00:13.525Z,47.67
2019-05-23T10:01:13.519Z,47.26
2019-05-23T10:02:13.505Z,47.16
2019-05-23T10:03:13.509Z,46.86
2019-05-23T10:04:13.491Z,46.68
2019-05-23T10:05:13.470Z,46.88
2019-05-23T10:06:13.484Z,46.78
2019-05-23T10:07:13.464Z,46.68
2019-05-23T10:08:13.460Z,46.66
2019-05-23T10:09:13.434Z,46.36
2019-05-23T10:10:13.415Z,46.96
2019-05-23T10:11:13.415Z,46.64
2019-05-23T10:12:13.393Z,45.22
2019-05-23T10:13:13.400Z,45.12
2019-05-23T10:14:13.375Z,45.32
2019-05-23T10:15:13.359Z,45.42
2019-05-23T10:16:13.408Z,45.42
2019-05-23T10:17:13.336Z,44.62
2019-05-23T10:18:13.337Z,45.50
2019-05-23T10:19:13.322Z,45.81
2019-05-23T10:20:13.314Z,44.70
2019-05-23T10:21:13.402Z,45.61
2019-05-23T10:22:13.279Z,45.20
2019-05-23T10:23:13.299Z,46.39
2019-05-23T10:24:13.259Z,45.50
2019-05-23T10:25:13.249Z,45.07
2019-05-23T10:26:13.239Z,44.57
2019-05-23T10:27:13.233Z,44.78
2019-05-23T10:28:13.230Z,44.87
2019-05-23T10:29:13.206Z,44.47
2019-05-23T10:30:13.195Z,44.67
2019-05-23T10:31:13.185Z,44.95
2019-05-23T10:32:13.178Z,44.65
2019-05-23T10:33:13.618Z,44.65
2019-05-23T10:34:13.144Z,43.93
2019-05-23T10:35:13.141Z,43.06
2019-05-23T10:36:13.127Z,41.17
2019-05-23T10:37:13.115Z,37.85
2019-05-23T10:38:13.113Z,36.15
2019-05-23T10:39:13.094Z,34.33
2019-05-23T10:40:13.093Z,31.09
2019-05-23T10:41:13.079Z,29.75
2019-05-23T10:42:13.061Z,28.04
2019-05-23T10:43:13.056Z,27.40
2019-05-23T10:44:13.044Z,27.25
2019-05-23T10:45:13.043Z,25.44
2019-05-23T10:46:13.019Z,24.91
2019-05-23T10:47:13.011Z,24.40
2019-05-23T10:48:13.024Z,22.24
2019-05-23T10:49:12.994Z,23.53
2019-05-23T10:50:12.970Z,24.35
2019-05-23T10:51:12.966Z,23.69
2019-05-23T10:52:12.953Z,24.46
2019-05-23T10:53:12.962Z,23.36
2019-05-23T10:54:12.933Z,22.97
2019-05-23T10:55:12.919Z,24.16
2019-05-23T10:56:12.913Z,23.17
2019-05-23T10:57:12.908Z,23.86
2019-05-23T10:58:12.901Z,24.45
2019-05-23T10:59:12.881Z,24.65
2019-05-23T11:00:12.887Z,24.66
2019-05-23T11:01:12.875Z,25.34
2019-05-23T11:02:12.863Z,23.85
2019-05-23T11:03:12.915Z,24.66
2019-05-23T11:04:12.831Z,25.28
2019-05-23T11:05:14.253Z,27.00
2019-05-23T11:06:16.558Z,26.50
2019-05-23T11:07:12.807Z,26.60
2019-05-23T11:08:12.818Z,26.48
2019-05-23T11:09:12.787Z,26.17
2019-05-23T11:10:12.777Z,25.38
2019-05-23T11:11:14.504Z,26.29
2019-05-23T11:12:12.768Z,26.90
2019-05-23T11:13:12.760Z,27.50
2019-05-23T11:14:12.741Z,27.14
2019-05-23T11:15:12.798Z,26.93
2019-05-23T11:16:12.716Z,27.63
2019-05-23T11:17:12.723Z,27.22
2019-05-23T11:18:12.698Z,27.22
2019-05-23T11:19:12.710Z,27.22
2019-05-23T11:20:12.689Z,27.29
2019-05-23T11:21:12.672Z,25.13
2019-05-23T11:22:12.667Z,26.02
2019-05-23T11:23:12.658Z,25.02
2019-05-23T11:24:12.655Z,24.72
2019-05-23T11:25:12.651Z,24.41
2019-05-23T11:26:12.630Z,25.29
2019-05-23T11:27:12.619Z,25.18
2019-05-23T11:28:12.631Z,25.05
2019-05-23T11:29:12.603Z,24.82
2019-05-23T11:30:12.591Z,21.95
2019-05-23T11:31:12.586Z,22.05
2019-05-23T11:32:12.566Z,22.42
2019-05-23T11:33:12.559Z,22.41
2019-05-23T11:34:12.552Z,21.90
2019-05-23T11:35:12.552Z,21.83
2019-05-23T11:36:12.536Z,22.03
2019-05-23T11:37:12.528Z,23.10
2019-05-23T11:38:12.520Z,22.49
2019-05-23T11:39:12.520Z,21.50
2019-05-23T11:40:12.559Z,22.86
2019-05-23T11:41:12.485Z,21.49
2019-05-23T11:42:12.473Z,21.67
2019-05-23T11:43:12.471Z,22.35
2019-05-23T11:44:12.471Z,20.78
2019-05-23T11:45:12.454Z,20.79
2019-05-23T11:46:12.447Z,21.96
2019-05-23T11:47:12.444Z,21.66
2019-05-23T11:48:15.897Z,21.74
2019-05-23T11:49:12.417Z,22.33
2019-05-23T11:50:12.409Z,22.12
2019-05-23T11:51:12.395Z,21.42
2019-05-23T11:52:12.408Z,21.72
2019-05-23T11:53:12.397Z,19.37
2019-05-23T11:54:12.387Z,20.95
2019-05-23T11:55:12.356Z,21.06
2019-05-23T11:56:12.349Z,21.92
2019-05-23T11:57:12.337Z,21.92
2019-05-23T11:58:12.339Z,21.12
2019-05-23T11:59:12.341Z,20.04
2019-05-23T12:00:12.316Z,21.50
2019-05-23T12:01:19.870Z,21.01
2019-05-23T12:02:13.311Z,21.50
2019-05-23T12:03:12.284Z,20.38
2019-05-23T12:04:12.427Z,22.10
2019-05-23T12:05:12.275Z,23.31
2019-05-23T12:06:12.297Z,23.82
2019-05-23T12:07:12.255Z,23.04
2019-05-23T12:08:12.246Z,24.45
2019-05-23T12:09:12.257Z,24.86
2019-05-23T12:10:12.228Z,24.85
2019-05-23T12:11:12.224Z,24.85
2019-05-23T12:12:12.231Z,26.31
2019-05-23T12:13:12.209Z,25.23
2019-05-23T12:14:12.200Z,26.14
2019-05-23T12:15:12.192Z,26.55
2019-05-23T12:16:12.174Z,26.87
2019-05-23T12:17:12.158Z,27.00
2019-05-23T12:18:12.159Z,27.51
2019-05-23T12:19:12.152Z,28.03
2019-05-23T12:20:12.143Z,29.03
2019-05-23T12:21:12.121Z,29.02
2019-05-23T12:22:12.115Z,28.52
2019-05-23T12:23:12.108Z,28.53
2019-05-23T12:24:12.184Z,29.13
2019-05-23T12:25:21.962Z,29.04
2019-05-23T12:26:13.076Z,28.96
2019-05-23T12:27:12.068Z,28.36
2019-05-23T12:28:12.225Z,28.47
2019-05-23T12:29:12.047Z,29.57
2019-05-23T12:30:12.058Z,29.68
2019-05-23T12:31:12.029Z,29.78
2019-05-23T12:32:12.020Z,30.11
2019-05-23T12:33:12.020Z,30.63
2019-05-23T12:34:11.998Z,31.16
2019-05-23T12:35:12.408Z,30.86
2019-05-23T12:36:11.974Z,31.64
2019-05-23T12:37:18.874Z,30.43
2019-05-23T12:38:12.975Z,30.65
2019-05-23T12:39:11.958Z,30.86
2019-05-23T12:40:11.967Z,31.76
2019-05-23T12:41:11.928Z,31.66
2019-05-23T12:42:11.925Z,32.04
2019-05-23T12:43:11.912Z,30.93
2019-05-23T12:44:11.904Z,31.71
2019-05-23T12:45:11.953Z,32.78
2019-05-23T12:46:11.901Z,30.66
2019-05-23T12:47:11.869Z,30.53
2019-05-23T12:48:11.863Z,30.91
2019-05-23T12:49:11.850Z,31.97
2019-05-23T12:50:11.942Z,29.00
2019-05-23T12:51:11.839Z,29.28
2019-05-23T12:52:11.824Z,29.17
2019-05-23T12:53:11.805Z,27.29
2019-05-23T12:54:11.845Z,27.19